createdAt,value
2018-10-19T00:00:49.844Z,0
2018-10-19T00:01:58.479Z,0
2018-10-19T00:03:07.534Z,0
2018-10-19T00:04:16.089Z,0
2018-10-19T00:05:24.728Z,0
2018-10-19T00:06:33.377Z,0
2018-10-19T00:07:41.998Z,0
2018-10-19T00:08:50.643Z,0
2018-10-19T00:09:59.287Z,0
2018-10-19T00:11:08.653Z,0
2018-10-19T00:12:17.161Z,0
2018-10-19T00:13:25.805Z,0
2018-10-19T00:14:34.705Z,0
2018-10-19T00:15:43.347Z,0
2018-10-19T00:16:51.988Z,0
2018-10-19T00:18:00.623Z,0
2018-10-19T00:19:09.532Z,0
2018-10-19T00:20:18.172Z,0
2018-10-19T00:21:26.813Z,0
2018-10-19T00:22:35.445Z,0
2018-10-19T00:23:44.087Z,0
2018-10-19T00:24:52.725Z,0
2018-10-19T00:26:01.372Z,0
2018-10-19T00:27:10.107Z,0
2018-10-19T00:28:19.076Z,0
2018-10-19T00:29:27.714Z,0
2018-10-19T00:30:36.359Z,0
2018-10-19T00:31:44.993Z,0
2018-10-19T00:32:53.665Z,0
2018-10-19T00:34:02.275Z,0
2018-10-19T00:35:11.452Z,0
2018-10-19T00:36:19.987Z,0
2018-10-19T00:37:28.629Z,0
2018-10-19T00:38:37.270Z,0
2018-10-19T00:39:45.901Z,0
2018-10-19T00:40:54.564Z,0
2018-10-19T00:42:03.178Z,0
2018-10-19T00:43:11.818Z,0
2018-10-19T00:44:20.451Z,0
2018-10-19T00:45:29.365Z,0
2018-10-19T00:46:38.006Z,0
2018-10-19T00:47:46.907Z,0
2018-10-19T00:48:55.536Z,0
2018-10-19T00:50:04.453Z,0
2018-10-19T00:51:13.112Z,0
2018-10-19T00:52:21.730Z,0
2018-10-19T00:53:30.360Z,0
2018-10-19T00:54:39.001Z,0
2018-10-19T00:55:47.650Z,0
2018-10-19T00:56:56.342Z,0
2018-10-19T00:58:04.931Z,0
2018-10-19T00:59:14.134Z,0
2018-10-19T01:00:22.674Z,0
2018-10-19T01:01:31.308Z,0
2018-10-19T01:02:39.954Z,0
2018-10-19T01:03:48.584Z,0
2018-10-19T01:04:57.587Z,0
2018-10-19T01:06:06.182Z,0
2018-10-19T01:07:14.839Z,0
2018-10-19T01:08:23.469Z,0
2018-10-19T01:09:32.110Z,0
2018-10-19T01:10:40.750Z,0
2018-10-19T01:11:49.398Z,0
2018-10-19T01:12:58.049Z,0
2018-10-19T01:14:06.673Z,0
2018-10-19T01:15:15.414Z,0
2018-10-19T01:16:23.948Z,0
2018-10-19T01:17:32.596Z,0
2018-10-19T01:18:41.230Z,0
2018-10-19T01:19:49.878Z,0
2018-10-19T01:20:59.067Z,0
2018-10-19T01:22:07.697Z,0
2018-10-19T01:23:16.426Z,0
2018-10-19T01:24:24.973Z,0
2018-10-19T01:25:33.601Z,0
2018-10-19T01:26:42.249Z,0
2018-10-19T01:27:50.885Z,0
2018-10-19T01:28:59.528Z,0
2018-10-19T01:30:08.158Z,0
2018-10-19T01:31:16.797Z,0
2018-10-19T01:32:25.440Z,0
2018-10-19T01:33:34.345Z,0
2018-10-19T01:34:42.986Z,0
2018-10-19T01:35:51.615Z,0
2018-10-19T01:37:00.263Z,0
2018-10-19T01:38:09.161Z,0
2018-10-19T01:39:17.808Z,0
2018-10-19T01:40:26.700Z,0
2018-10-19T01:41:35.343Z,0
2018-10-19T01:42:43.976Z,0
2018-10-19T01:43:52.613Z,0
2018-10-19T01:45:01.615Z,0
2018-10-19T01:46:10.204Z,0
2018-10-19T01:47:18.846Z,0
2018-10-19T01:48:27.481Z,0
2018-10-19T01:49:36.122Z,0
2018-10-19T01:50:44.761Z,0
2018-10-19T01:51:53.403Z,0
2018-10-19T01:53:02.119Z,0
2018-10-19T01:54:10.678Z,0
2018-10-19T01:55:19.316Z,0
2018-10-19T01:56:27.956Z,0
2018-10-19T01:57:36.596Z,0
2018-10-19T01:58:45.246Z,0
2018-10-19T01:59:53.873Z,0
2018-10-19T02:01:02.512Z,0
2018-10-19T02:02:11.156Z,0
2018-10-19T02:03:20.444Z,0
2018-10-19T02:04:29.082Z,0
2018-10-19T02:05:37.717Z,0
2018-10-19T02:06:46.363Z,0
2018-10-19T02:07:54.999Z,0
2018-10-19T02:09:03.697Z,0
2018-10-19T02:10:12.539Z,0
2018-10-19T02:11:21.589Z,0
2018-10-19T02:12:30.233Z,0
2018-10-19T02:13:38.872Z,0
2018-10-19T02:14:47.511Z,0
2018-10-19T02:15:56.412Z,0
2018-10-19T02:17:05.078Z,0
2018-10-19T02:18:13.700Z,0
2018-10-19T02:19:22.597Z,0
2018-10-19T02:20:31.232Z,0
2018-10-19T02:21:39.882Z,0
2018-10-19T02:22:49.042Z,0
2018-10-19T02:23:57.685Z,0
2018-10-19T02:25:06.318Z,0
2018-10-19T02:26:14.969Z,0
2018-10-19T02:27:23.610Z,0
2018-10-19T02:28:32.252Z,0
2018-10-19T02:29:40.893Z,0
2018-10-19T02:30:50.059Z,0
2018-10-19T02:31:58.706Z,0
2018-10-19T02:33:08.065Z,0
2018-10-19T02:34:16.666Z,0
2018-10-19T02:35:25.784Z,0
2018-10-19T02:36:34.426Z,0
2018-10-19T02:37:43.068Z,0
2018-10-19T02:38:51.715Z,0
2018-10-19T02:40:00.349Z,0
2018-10-19T02:41:09.432Z,0
2018-10-19T02:42:18.256Z,0
2018-10-19T02:43:26.906Z,0
2018-10-19T02:44:35.805Z,0
2018-10-19T02:45:44.438Z,0
2018-10-19T02:46:53.087Z,0
2018-10-19T02:48:02.306Z,0
2018-10-19T02:49:11.218Z,0
2018-10-19T02:50:19.865Z,0
2018-10-19T02:51:28.506Z,0
2018-10-19T02:52:37.401Z,0
2018-10-19T02:53:46.050Z,0
2018-10-19T02:54:54.687Z,0
2018-10-19T02:56:03.328Z,0
2018-10-19T02:57:12.049Z,0
2018-10-19T02:58:20.610Z,0
2018-10-19T02:59:29.255Z,0
2018-10-19T03:00:38.156Z,0
2018-10-19T03:01:46.783Z,0
2018-10-19T03:02:55.429Z,0
2018-10-19T03:04:04.069Z,0
2018-10-19T03:05:13.043Z,0
2018-10-19T03:06:22.155Z,0
2018-10-19T03:07:30.787Z,0
2018-10-19T03:08:39.433Z,0
2018-10-19T03:09:48.074Z,0
2018-10-19T03:10:56.748Z,0
2018-10-19T03:12:05.396Z,0
2018-10-19T03:13:13.989Z,0
2018-10-19T03:14:22.880Z,0
2018-10-19T03:15:31.810Z,0
2018-10-19T03:16:40.974Z,0
2018-10-19T03:17:49.613Z,0
2018-10-19T03:18:58.248Z,0
2018-10-19T03:20:07.172Z,0
2018-10-19T03:21:16.670Z,0
2018-10-19T03:22:25.166Z,0
2018-10-19T03:23:33.802Z,0
2018-10-19T03:24:42.447Z,0
2018-10-19T03:25:51.090Z,0
2018-10-19T03:27:00.036Z,0
2018-10-19T03:28:08.655Z,0
2018-10-19T03:29:17.818Z,0
2018-10-19T03:30:26.401Z,0
2018-10-19T03:31:35.043Z,0
2018-10-19T03:32:43.960Z,0
2018-10-19T03:33:52.851Z,0
2018-10-19T03:35:01.563Z,0
2018-10-19T03:36:10.134Z,0
2018-10-19T03:37:18.774Z,0
2018-10-19T03:38:27.410Z,0
2018-10-19T03:39:36.055Z,0
2018-10-19T03:40:44.705Z,0
2018-10-19T03:41:53.606Z,0
2018-10-19T03:43:02.246Z,0
2018-10-19T03:44:11.990Z,0
2018-10-19T03:45:20.628Z,0
2018-10-19T03:46:29.289Z,0
2018-10-19T03:47:38.182Z,0
2018-10-19T03:48:46.829Z,0
2018-10-19T03:49:55.465Z,0
2018-10-19T03:51:04.202Z,0
2018-10-19T03:52:12.741Z,0
2018-10-19T03:53:21.886Z,0
2018-10-19T03:54:30.520Z,0
2018-10-19T03:55:39.163Z,0
2018-10-19T03:56:48.055Z,0
2018-10-19T03:57:56.956Z,0
2018-10-19T03:59:06.194Z,0
2018-10-19T04:00:14.702Z,0
2018-10-19T04:01:23.345Z,0
2018-10-19T04:02:32.235Z,0
2018-10-19T04:03:40.959Z,0
2018-10-19T04:04:49.782Z,0
2018-10-19T04:05:58.429Z,0
2018-10-19T04:07:07.066Z,0
2018-10-19T04:08:15.708Z,0
2018-10-19T04:09:24.607Z,0
2018-10-19T04:10:33.258Z,0
2018-10-19T04:11:42.152Z,0
2018-10-19T04:12:50.794Z,0
2018-10-19T04:13:59.694Z,0
2018-10-19T04:15:08.452Z,0
2018-10-19T04:16:16.993Z,0
2018-10-19T04:17:25.897Z,0
2018-10-19T04:18:34.799Z,0
2018-10-19T04:19:43.434Z,0
2018-10-19T04:20:52.402Z,0
2018-10-19T04:22:00.979Z,0
2018-10-19T04:23:09.733Z,0
2018-10-19T04:24:18.249Z,0
2018-10-19T04:25:26.907Z,0
2018-10-19T04:26:36.073Z,0
2018-10-19T04:27:45.629Z,0
2018-10-19T04:28:54.471Z,0
2018-10-19T04:30:03.120Z,0
2018-10-19T04:31:11.760Z,0
2018-10-19T04:32:20.667Z,0
2018-10-19T04:33:29.309Z,0
2018-10-19T04:34:38.221Z,0
2018-10-19T04:35:47.124Z,0
2018-10-19T04:36:56.078Z,0
2018-10-19T04:38:04.672Z,0
2018-10-19T04:39:13.362Z,0
2018-10-19T04:40:21.944Z,0
2018-10-19T04:41:30.975Z,0
2018-10-19T04:42:39.546Z,0
2018-10-19T04:43:48.186Z,0
2018-10-19T04:44:57.160Z,0
2018-10-19T04:46:05.740Z,0
2018-10-19T04:47:14.791Z,0
2018-10-19T04:48:23.426Z,0
2018-10-19T04:49:32.070Z,0
2018-10-19T04:50:40.709Z,0
2018-10-19T04:51:49.612Z,0
2018-10-19T04:52:58.545Z,0
2018-10-19T04:54:07.502Z,0
2018-10-19T04:55:16.399Z,0
2018-10-19T04:56:25.040Z,0
2018-10-19T04:57:33.954Z,0
2018-10-19T04:58:43.397Z,0
2018-10-19T04:59:52.301Z,0
2018-10-19T05:01:01.212Z,0
2018-10-19T05:02:09.858Z,0
2018-10-19T05:03:18.605Z,0
2018-10-19T05:04:27.192Z,0
2018-10-19T05:05:35.766Z,0
2018-10-19T05:06:44.578Z,0
2018-10-19T05:07:53.382Z,0
2018-10-19T05:09:02.231Z,0
2018-10-19T05:10:10.863Z,0
2018-10-19T05:11:19.627Z,0
2018-10-19T05:12:28.210Z,0
2018-10-19T05:13:36.788Z,0
2018-10-19T05:14:45.430Z,0
2018-10-19T05:15:54.061Z,0
2018-10-19T05:17:02.781Z,0
2018-10-19T05:18:11.344Z,0
2018-10-19T05:19:19.988Z,0
2018-10-19T05:20:28.884Z,0
2018-10-19T05:21:38.066Z,0
2018-10-19T05:22:46.703Z,0
2018-10-19T05:23:55.356Z,0
2018-10-19T05:25:03.984Z,0
2018-10-19T05:26:12.680Z,0
2018-10-19T05:27:21.269Z,0
2018-10-19T05:28:29.910Z,0
2018-10-19T05:29:38.556Z,0
2018-10-19T05:30:47.197Z,0
2018-10-19T05:31:56.163Z,0
2018-10-19T05:33:04.742Z,0
2018-10-19T05:34:13.380Z,0
2018-10-19T05:35:22.026Z,0
2018-10-19T05:36:30.663Z,0
2018-10-19T05:37:39.843Z,0
2018-10-19T05:38:48.755Z,0
2018-10-19T05:39:57.390Z,0
2018-10-19T05:41:06.699Z,0
2018-10-19T05:42:15.521Z,0
2018-10-19T05:43:24.183Z,0
2018-10-19T05:44:33.073Z,0
2018-10-19T05:45:41.710Z,0
2018-10-19T05:46:50.341Z,0
2018-10-19T05:47:58.981Z,0
2018-10-19T05:49:07.622Z,0
2018-10-19T05:50:16.322Z,0
2018-10-19T05:51:24.908Z,0
2018-10-19T05:52:33.540Z,0
2018-10-19T05:53:42.183Z,0
2018-10-19T05:54:50.816Z,0
2018-10-19T05:55:59.874Z,5
2018-10-19T05:57:08.435Z,5
2018-10-19T05:58:17.082Z,5
2018-10-19T05:59:25.715Z,5
2018-10-19T06:00:34.364Z,5
2018-10-19T06:01:43.266Z,5
2018-10-19T06:02:51.905Z,5
2018-10-19T06:04:00.540Z,5
2018-10-19T06:05:09.692Z,5
2018-10-19T06:06:18.244Z,5
2018-10-19T06:07:26.877Z,10
2018-10-19T06:08:35.515Z,10
2018-10-19T06:09:44.151Z,10
2018-10-19T06:10:52.802Z,10
2018-10-19T06:12:01.459Z,10
2018-10-19T06:13:10.074Z,10
2018-10-19T06:14:19.204Z,15
2018-10-19T06:15:27.847Z,15
2018-10-19T06:16:36.483Z,15
2018-10-19T06:17:45.124Z,15
2018-10-19T06:18:53.755Z,20
2018-10-19T06:20:02.432Z,20
2018-10-19T06:21:11.549Z,20
2018-10-19T06:22:20.128Z,20
2018-10-19T06:23:28.762Z,20
2018-10-19T06:24:37.400Z,25
2018-10-19T06:25:46.391Z,25
2018-10-19T06:26:55.005Z,25
2018-10-19T06:28:03.646Z,25
2018-10-19T06:29:12.324Z,30
2018-10-19T06:30:20.922Z,30
2018-10-19T06:31:29.820Z,30
2018-10-19T06:32:38.468Z,30
2018-10-19T06:33:48.120Z,30
2018-10-19T06:34:56.551Z,35
2018-10-19T06:36:05.124Z,35
2018-10-19T06:37:13.775Z,35
2018-10-19T06:38:22.404Z,40
2018-10-19T06:39:31.044Z,40
2018-10-19T06:40:40.086Z,40
2018-10-19T06:41:48.645Z,40
2018-10-19T06:42:57.281Z,40
2018-10-19T06:44:05.952Z,40
2018-10-19T06:45:14.557Z,40
2018-10-19T06:46:23.189Z,45
2018-10-19T06:47:32.165Z,45
2018-10-19T06:48:40.802Z,45
2018-10-19T06:49:49.438Z,45
2018-10-19T06:50:58.081Z,45
2018-10-19T06:52:06.719Z,45
2018-10-19T06:53:15.917Z,45
2018-10-19T06:54:24.701Z,45
2018-10-19T06:55:33.335Z,45
2018-10-19T06:56:41.974Z,50
2018-10-19T06:57:50.872Z,50
2018-10-19T06:58:59.562Z,50
2018-10-19T07:00:08.698Z,50
2018-10-19T07:01:17.339Z,55
2018-10-19T07:02:25.980Z,50
2018-10-19T07:03:34.618Z,50
2018-10-19T07:04:43.257Z,60
2018-10-19T07:05:52.023Z,65
2018-10-19T07:07:00.561Z,60
2018-10-19T07:08:09.350Z,60
2018-10-19T07:09:18.404Z,60
2018-10-19T07:10:27.043Z,60
2018-10-19T07:11:35.683Z,60
2018-10-19T07:12:44.321Z,60
2018-10-19T07:13:53.002Z,65
2018-10-19T07:15:01.601Z,65
2018-10-19T07:16:10.241Z,65
2018-10-19T07:17:18.877Z,65
2018-10-19T07:18:27.520Z,65
2018-10-19T07:19:36.156Z,65
2018-10-19T07:20:44.794Z,65
2018-10-19T07:21:53.432Z,65
2018-10-19T07:23:02.116Z,65
2018-10-19T07:24:10.717Z,65
2018-10-19T07:25:19.624Z,65
2018-10-19T07:26:28.809Z,65
2018-10-19T07:27:37.447Z,70
2018-10-19T07:28:46.356Z,70
2018-10-19T07:29:54.993Z,70
2018-10-19T07:31:03.938Z,65
2018-10-19T07:32:13.532Z,70
2018-10-19T07:33:22.000Z,70
2018-10-19T07:34:30.637Z,75
2018-10-19T07:35:39.541Z,80
2018-10-19T07:36:48.186Z,80
2018-10-19T07:37:56.850Z,75
2018-10-19T07:39:05.722Z,80
2018-10-19T07:40:14.367Z,80
2018-10-19T07:41:23.267Z,75
2018-10-19T07:42:31.951Z,70
2018-10-19T07:43:40.553Z,75
2018-10-19T07:44:49.192Z,75
2018-10-19T07:45:57.824Z,80
2018-10-19T07:47:06.856Z,75
2018-10-19T07:48:16.242Z,75
2018-10-19T07:49:24.846Z,75
2018-10-19T07:50:33.487Z,75
2018-10-19T07:51:42.132Z,75
2018-10-19T07:52:50.762Z,80
2018-10-19T07:53:59.724Z,80
2018-10-19T07:55:08.316Z,75
2018-10-19T07:56:17.042Z,80
2018-10-19T07:57:25.595Z,85
2018-10-19T07:58:34.237Z,85
2018-10-19T07:59:42.878Z,90
2018-10-19T08:00:51.571Z,90
2018-10-19T08:02:00.171Z,95
2018-10-19T08:03:08.794Z,85
2018-10-19T08:04:17.440Z,90
2018-10-19T08:05:26.612Z,95
2018-10-19T08:06:35.248Z,95
2018-10-19T08:07:44.149Z,95
2018-10-19T08:08:52.792Z,100
2018-10-19T08:10:01.430Z,95
2018-10-19T08:11:10.868Z,90
2018-10-19T08:12:19.408Z,95
2018-10-19T08:13:28.048Z,100
2018-10-19T08:14:36.683Z,100
2018-10-19T08:15:45.323Z,105
2018-10-19T08:16:53.979Z,105
2018-10-19T08:18:02.594Z,105
2018-10-19T08:19:11.238Z,105
2018-10-19T08:20:19.877Z,105
2018-10-19T08:21:28.518Z,105
2018-10-19T08:22:37.150Z,105
2018-10-19T08:23:45.795Z,105
2018-10-19T08:24:54.704Z,110
2018-10-19T08:26:03.718Z,110
2018-10-19T08:27:12.722Z,115
2018-10-19T08:28:21.324Z,110
2018-10-19T08:29:29.961Z,110
2018-10-19T08:30:38.602Z,105
2018-10-19T08:31:47.236Z,105
2018-10-19T08:32:55.880Z,110
2018-10-19T08:34:04.516Z,110
2018-10-19T08:35:13.619Z,115
2018-10-19T08:36:22.195Z,115
2018-10-19T08:37:30.862Z,115
2018-10-19T08:38:39.457Z,120
2018-10-19T08:39:48.091Z,125
2018-10-19T08:40:57.099Z,120
2018-10-19T08:42:05.696Z,125
2018-10-19T08:43:14.465Z,125
2018-10-19T08:44:22.979Z,125
2018-10-19T08:45:31.629Z,115
2018-10-19T08:46:40.259Z,115
2018-10-19T08:47:48.957Z,125
2018-10-19T08:48:57.563Z,120
2018-10-19T08:50:06.470Z,115
2018-10-19T08:51:15.672Z,120
2018-10-19T08:52:24.711Z,125
2018-10-19T08:53:33.439Z,125
2018-10-19T08:54:42.058Z,130
2018-10-19T08:55:50.640Z,125
2018-10-19T08:56:59.279Z,125
2018-10-19T08:58:08.210Z,130
2018-10-19T08:59:16.928Z,130
2018-10-19T09:00:26.353Z,130
2018-10-19T09:01:34.993Z,135
2018-10-19T09:02:43.636Z,135
2018-10-19T09:03:52.532Z,135
2018-10-19T09:05:01.230Z,135
2018-10-19T09:06:09.907Z,135
2018-10-19T09:07:18.724Z,130
2018-10-19T09:08:27.356Z,135
2018-10-19T09:09:35.999Z,135
2018-10-19T09:10:44.984Z,135
2018-10-19T09:11:53.698Z,135
2018-10-19T09:13:02.268Z,135
2018-10-19T09:14:11.177Z,135
2018-10-19T09:15:19.959Z,135
2018-10-19T09:16:28.465Z,135
2018-10-19T09:17:37.113Z,130
2018-10-19T09:18:46.158Z,130
2018-10-19T09:19:55.005Z,130
2018-10-19T09:21:03.684Z,130
2018-10-19T09:22:12.555Z,125
2018-10-19T09:23:21.199Z,130
2018-10-19T09:24:30.105Z,125
2018-10-19T09:25:38.745Z,130
2018-10-19T09:26:47.656Z,125
2018-10-19T09:27:56.559Z,125
2018-10-19T09:29:05.212Z,130
2018-10-19T09:30:13.891Z,135
2018-10-19T09:31:22.828Z,135
2018-10-19T09:32:31.480Z,135
2018-10-19T09:33:40.113Z,135
2018-10-19T09:34:48.756Z,135
2018-10-19T09:35:57.790Z,135
2018-10-19T09:37:06.451Z,140
2018-10-19T09:38:15.020Z,140
2018-10-19T09:39:24.252Z,140
2018-10-19T09:40:32.882Z,140
2018-10-19T09:41:41.800Z,140
2018-10-19T09:42:50.960Z,140
2018-10-19T09:43:59.605Z,140
2018-10-19T09:45:08.688Z,140
2018-10-19T09:46:17.249Z,140
2018-10-19T09:47:25.938Z,140
2018-10-19T09:48:34.542Z,130
2018-10-19T09:49:43.184Z,135
2018-10-19T09:50:51.818Z,135
2018-10-19T09:52:00.465Z,140
2018-10-19T09:53:09.173Z,140
2018-10-19T09:54:17.754Z,140
2018-10-19T09:55:26.763Z,140
2018-10-19T09:56:35.408Z,140
2018-10-19T09:57:44.046Z,140
2018-10-19T09:58:52.707Z,140
2018-10-19T10:00:01.330Z,145
2018-10-19T10:01:10.043Z,140
2018-10-19T10:02:18.617Z,140
2018-10-19T10:03:27.265Z,140
2018-10-19T10:04:35.905Z,145
2018-10-19T10:05:44.548Z,145
2018-10-19T10:06:53.199Z,145
2018-10-19T10:08:01.883Z,145
2018-10-19T10:09:10.909Z,145
2018-10-19T10:10:19.882Z,145
2018-10-19T10:11:28.535Z,145
2018-10-19T10:12:37.688Z,145
2018-10-19T10:13:46.945Z,140
2018-10-19T10:14:56.093Z,135
2018-10-19T10:16:05.906Z,135
2018-10-19T10:17:14.828Z,135
2018-10-19T10:18:23.384Z,130
2018-10-19T10:19:32.163Z,135
2018-10-19T10:20:40.822Z,135
2018-10-19T10:21:49.457Z,120
2018-10-19T10:22:58.102Z,120
2018-10-19T10:24:07.011Z,125
2018-10-19T10:25:15.729Z,125
2018-10-19T10:26:24.308Z,130
2018-10-19T10:27:32.943Z,140
2018-10-19T10:28:41.588Z,130
2018-10-19T10:29:50.228Z,130
2018-10-19T10:30:58.891Z,135
2018-10-19T10:32:07.874Z,130
2018-10-19T10:33:16.520Z,130
2018-10-19T10:34:25.857Z,140
2018-10-19T10:35:34.520Z,145
2018-10-19T10:36:43.137Z,150
2018-10-19T10:37:52.068Z,155
2018-10-19T10:39:00.852Z,155
2018-10-19T10:40:09.409Z,160
2018-10-19T10:41:18.014Z,155
2018-10-19T10:42:26.656Z,160
2018-10-19T10:43:35.321Z,160
2018-10-19T10:44:44.152Z,155
2018-10-19T10:45:52.876Z,155
2018-10-19T10:47:02.307Z,155
2018-10-19T10:48:11.131Z,160
2018-10-19T10:49:19.769Z,160
2018-10-19T10:50:28.416Z,165
2018-10-19T10:51:37.319Z,160
2018-10-19T10:52:45.962Z,160
2018-10-19T10:53:54.599Z,160
2018-10-19T10:55:03.261Z,165
2018-10-19T10:56:12.151Z,165
2018-10-19T10:57:20.796Z,160
2018-10-19T10:58:29.432Z,165
2018-10-19T10:59:38.339Z,180
2018-10-19T11:00:46.983Z,175
2018-10-19T11:01:55.628Z,185
2018-10-19T11:03:04.272Z,195
2018-10-19T11:04:13.027Z,190
2018-10-19T11:05:21.554Z,195
2018-10-19T11:06:30.202Z,195
2018-10-19T11:07:39.045Z,195
2018-10-19T11:08:47.496Z,200
2018-10-19T11:09:56.181Z,195
2018-10-19T11:11:05.111Z,195
2018-10-19T11:12:13.763Z,200
2018-10-19T11:13:22.403Z,210
2018-10-19T11:14:31.050Z,215
2018-10-19T11:15:39.958Z,215
2018-10-19T11:16:48.596Z,215
2018-10-19T11:17:57.510Z,210
2018-10-19T11:19:06.488Z,210
2018-10-19T11:20:15.078Z,215
2018-10-19T11:21:23.720Z,215
2018-10-19T11:22:32.371Z,215
2018-10-19T11:23:41.015Z,215
2018-10-19T11:24:49.927Z,215
2018-10-19T11:25:58.566Z,215
2018-10-19T11:27:07.485Z,215
2018-10-19T11:28:16.261Z,210
2018-10-19T11:29:24.775Z,215
2018-10-19T11:30:33.444Z,215
2018-10-19T11:31:42.065Z,210
2018-10-19T11:32:50.708Z,210
2018-10-19T11:33:59.742Z,215
2018-10-19T11:35:08.374Z,210
2018-10-19T11:36:17.020Z,205
2018-10-19T11:37:25.714Z,205
2018-10-19T11:38:34.306Z,205
2018-10-19T11:39:42.975Z,200
2018-10-19T11:40:51.624Z,195
2018-10-19T11:42:00.269Z,190
2018-10-19T11:43:09.223Z,185
2018-10-19T11:44:17.863Z,195
2018-10-19T11:45:26.512Z,195
2018-10-19T11:46:35.161Z,190
2018-10-19T11:47:43.804Z,190
2018-10-19T11:48:52.592Z,190
2018-10-19T11:50:01.569Z,185
2018-10-19T11:51:10.209Z,180
2018-10-19T11:52:19.255Z,180
2018-10-19T11:53:27.896Z,185
2018-10-19T11:54:36.541Z,175
2018-10-19T11:55:45.187Z,175
2018-10-19T11:56:53.886Z,160
2018-10-19T11:58:02.496Z,160
2018-10-19T11:59:11.119Z,170
2018-10-19T12:00:19.766Z,170
2018-10-19T12:01:28.673Z,170
2018-10-19T12:02:37.318Z,170
2018-10-19T12:03:46.535Z,175
2018-10-19T12:04:54.994Z,165
2018-10-19T12:06:03.905Z,170
2018-10-19T12:07:12.634Z,155
2018-10-19T12:08:21.587Z,155
2018-10-19T12:09:30.234Z,160
2018-10-19T12:10:38.904Z,155
2018-10-19T12:11:47.531Z,150
2018-10-19T12:12:56.448Z,155
2018-10-19T12:14:05.095Z,155
2018-10-19T12:15:13.859Z,160
2018-10-19T12:16:22.983Z,150
2018-10-19T12:17:31.562Z,150
2018-10-19T12:18:40.454Z,155
2018-10-19T12:19:49.121Z,160
2018-10-19T12:20:57.851Z,160
2018-10-19T12:22:06.394Z,165
2018-10-19T12:23:15.035Z,170
2018-10-19T12:24:23.676Z,175
2018-10-19T12:25:32.316Z,175
2018-10-19T12:26:40.964Z,180
2018-10-19T12:27:49.608Z,180
2018-10-19T12:28:58.565Z,180
2018-10-19T12:30:07.209Z,180
2018-10-19T12:31:16.236Z,180
2018-10-19T12:32:24.774Z,180
2018-10-19T12:33:33.421Z,185
2018-10-19T12:34:42.338Z,190
2018-10-19T12:35:50.977Z,190
2018-10-19T12:36:59.893Z,185
2018-10-19T12:38:08.529Z,190
2018-10-19T12:39:17.338Z,185
2018-10-19T12:40:26.695Z,185
2018-10-19T12:41:35.345Z,185
2018-10-19T12:42:43.986Z,185
2018-10-19T12:43:52.645Z,180
2018-10-19T12:45:01.318Z,180
2018-10-19T12:46:09.925Z,180
2018-10-19T12:47:18.595Z,180
2018-10-19T12:48:27.225Z,175
2018-10-19T12:49:36.137Z,175
2018-10-19T12:50:44.777Z,175
2018-10-19T12:51:53.418Z,170
2018-10-19T12:53:02.062Z,170
2018-10-19T12:54:11.035Z,170
2018-10-19T12:55:19.670Z,170
2018-10-19T12:56:28.335Z,160
2018-10-19T12:57:37.656Z,165
2018-10-19T12:58:46.283Z,165
2018-10-19T12:59:54.924Z,160
2018-10-19T13:01:03.947Z,155
2018-10-19T13:02:12.914Z,155
2018-10-19T13:03:21.806Z,155
2018-10-19T13:04:30.343Z,150
2018-10-19T13:05:38.991Z,150
2018-10-19T13:06:47.891Z,145
2018-10-19T13:07:56.803Z,140
2018-10-19T13:09:05.519Z,135
2018-10-19T13:10:14.635Z,125
2018-10-19T13:11:23.281Z,115
2018-10-19T13:12:31.923Z,120
2018-10-19T13:13:40.571Z,115
2018-10-19T13:14:49.211Z,110
2018-10-19T13:15:58.139Z,105
2018-10-19T13:17:07.037Z,105
2018-10-19T13:18:15.691Z,100
2018-10-19T13:19:24.589Z,95
2018-10-19T13:20:33.244Z,100
2018-10-19T13:21:41.878Z,105
2018-10-19T13:22:50.536Z,105
2018-10-19T13:23:59.465Z,105
2018-10-19T13:25:08.387Z,115
2018-10-19T13:26:17.030Z,125
2018-10-19T13:27:25.673Z,125
2018-10-19T13:28:34.321Z,125
2018-10-19T13:29:42.955Z,125
2018-10-19T13:30:51.604Z,125
2018-10-19T13:32:00.249Z,115
2018-10-19T13:33:09.259Z,115
2018-10-19T13:34:17.851Z,100
2018-10-19T13:35:26.469Z,100
2018-10-19T13:36:35.372Z,100
2018-10-19T13:37:44.016Z,95
2018-10-19T13:38:52.724Z,90
2018-10-19T13:40:01.638Z,95
2018-10-19T13:41:10.278Z,90
2018-10-19T13:42:18.923Z,90
2018-10-19T13:43:27.827Z,90
2018-10-19T13:44:36.475Z,90
2018-10-19T13:45:45.122Z,95
2018-10-19T13:46:53.794Z,100
2018-10-19T13:48:02.408Z,95
2018-10-19T13:49:11.047Z,100
2018-10-19T13:50:19.694Z,100
2018-10-19T13:51:28.339Z,105
2018-10-19T13:52:36.992Z,110
2018-10-19T13:53:45.631Z,115
2018-10-19T13:54:54.811Z,120
2018-10-19T13:56:03.452Z,125
2018-10-19T13:57:12.165Z,125
2018-10-19T13:58:21.442Z,115
2018-10-19T13:59:30.037Z,115
2018-10-19T14:00:38.679Z,115
2018-10-19T14:01:47.332Z,115
2018-10-19T14:02:56.291Z,120
2018-10-19T14:04:04.886Z,125
2018-10-19T14:05:13.626Z,135
2018-10-19T14:06:22.176Z,145
2018-10-19T14:07:30.827Z,135
2018-10-19T14:08:39.471Z,140
2018-10-19T14:09:48.114Z,145
2018-10-19T14:10:56.802Z,145
2018-10-19T14:12:05.671Z,145
2018-10-19T14:13:14.307Z,145
2018-10-19T14:14:22.953Z,140
2018-10-19T14:15:31.856Z,140
2018-10-19T14:16:40.507Z,140
2018-10-19T14:17:49.154Z,140
2018-10-19T14:18:57.856Z,140
2018-10-19T14:20:06.438Z,135
2018-10-19T14:21:15.246Z,135
2018-10-19T14:22:24.002Z,135
2018-10-19T14:23:32.913Z,140
2018-10-19T14:24:41.560Z,145
2018-10-19T14:25:50.198Z,145
2018-10-19T14:26:58.860Z,145
2018-10-19T14:28:07.754Z,145
2018-10-19T14:29:16.513Z,145
2018-10-19T14:30:25.049Z,145
2018-10-19T14:31:33.696Z,145
2018-10-19T14:32:42.335Z,140
2018-10-19T14:33:50.999Z,140
2018-10-19T14:35:00.014Z,135
2018-10-19T14:36:08.597Z,130
2018-10-19T14:37:17.502Z,130
2018-10-19T14:38:26.150Z,115
2018-10-19T14:39:34.793Z,115
2018-10-19T14:40:43.432Z,105
2018-10-19T14:41:52.109Z,100
2018-10-19T14:43:00.982Z,95
2018-10-19T14:44:09.905Z,90
2018-10-19T14:45:18.548Z,85
2018-10-19T14:46:27.202Z,80
2018-10-19T14:47:36.101Z,75
2018-10-19T14:48:44.826Z,70
2018-10-19T14:49:53.408Z,65
2018-10-19T14:51:02.472Z,65
2018-10-19T14:52:11.060Z,60
2018-10-19T14:53:20.133Z,55
2018-10-19T14:54:28.807Z,55
2018-10-19T14:55:37.469Z,50
2018-10-19T14:56:46.063Z,50
2018-10-19T14:57:54.710Z,45
2018-10-19T14:59:03.372Z,45
2018-10-19T15:00:12.268Z,45
2018-10-19T15:01:20.914Z,40
2018-10-19T15:02:29.550Z,40
2018-10-19T15:03:38.208Z,40
2018-10-19T15:04:46.852Z,40
2018-10-19T15:05:55.768Z,40
2018-10-19T15:07:04.664Z,40
2018-10-19T15:08:13.313Z,40
2018-10-19T15:09:22.084Z,45
2018-10-19T15:10:32.097Z,45
2018-10-19T15:11:40.644Z,45
2018-10-19T15:12:49.763Z,50
2018-10-19T15:13:58.671Z,50
2018-10-19T15:15:07.709Z,50
2018-10-19T15:16:16.292Z,50
2018-10-19T15:17:24.935Z,50
2018-10-19T15:18:33.987Z,55
2018-10-19T15:19:42.622Z,55
2018-10-19T15:20:51.275Z,55
2018-10-19T15:21:59.914Z,55
2018-10-19T15:23:08.826Z,55
2018-10-19T15:24:17.919Z,55
2018-10-19T15:25:26.458Z,55
2018-10-19T15:26:35.106Z,55
2018-10-19T15:27:43.745Z,55
2018-10-19T15:28:52.431Z,55
2018-10-19T15:30:01.090Z,55
2018-10-19T15:31:09.678Z,55
2018-10-19T15:32:18.319Z,55
2018-10-19T15:33:26.978Z,55
2018-10-19T15:34:35.618Z,55
2018-10-19T15:35:44.262Z,55
2018-10-19T15:36:52.904Z,55
2018-10-19T15:38:01.548Z,55
2018-10-19T15:39:10.235Z,55
2018-10-19T15:40:18.843Z,60
2018-10-19T15:41:27.490Z,60
2018-10-19T15:42:36.131Z,60
2018-10-19T15:43:45.048Z,65
2018-10-19T15:44:53.719Z,65
2018-10-19T15:46:02.900Z,65
2018-10-19T15:47:11.537Z,65
2018-10-19T15:48:20.578Z,65
2018-10-19T15:49:29.220Z,60
2018-10-19T15:50:37.867Z,60
2018-10-19T15:51:46.501Z,55
2018-10-19T15:52:55.152Z,55
2018-10-19T15:54:03.877Z,50
2018-10-19T15:55:12.449Z,45
2018-10-19T15:56:21.094Z,50
2018-10-19T15:57:29.853Z,45
2018-10-19T15:58:38.684Z,40
2018-10-19T15:59:47.281Z,40
2018-10-19T16:00:55.934Z,35
2018-10-19T16:02:04.571Z,35
2018-10-19T16:03:13.390Z,30
2018-10-19T16:04:22.420Z,30
2018-10-19T16:05:31.074Z,25
2018-10-19T16:06:39.707Z,25
2018-10-19T16:07:48.353Z,25
2018-10-19T16:08:57.012Z,20
2018-10-19T16:10:06.194Z,20
2018-10-19T16:11:14.829Z,20
2018-10-19T16:12:23.476Z,15
2018-10-19T16:13:32.116Z,15
2018-10-19T16:14:41.016Z,15
2018-10-19T16:15:49.668Z,15
2018-10-19T16:16:58.307Z,10
2018-10-19T16:18:07.322Z,10
2018-10-19T16:19:15.934Z,10
2018-10-19T16:20:24.644Z,10